createdAt,value
2022-11-16T00:01:33.134Z,12.50
2022-11-16T00:04:01.852Z,12.50
2022-11-16T00:06:29.711Z,12.60
2022-11-16T00:09:18.815Z,12.60
2022-11-16T00:11:46.492Z,12.50
2022-11-16T00:14:13.314Z,12.50
2022-11-16T00:16:40.598Z,12.40
2022-11-16T00:19:08.259Z,12.40
2022-11-16T00:21:35.371Z,12.40
2022-11-16T00:24:03.258Z,12.20
2022-11-16T00:26:30.319Z,12.20
2022-11-16T00:28:57.819Z,12.10
2022-11-16T00:31:25.041Z,11.90
2022-11-16T00:33:51.984Z,11.80
2022-11-16T00:36:19.219Z,11.80
2022-11-16T00:38:46.301Z,11.80
2022-11-16T00:41:13.489Z,11.80
2022-11-16T00:43:40.387Z,11.80
2022-11-16T00:46:07.468Z,11.70
2022-11-16T00:48:34.825Z,11.70
2022-11-16T00:51:01.921Z,11.80
2022-11-16T00:53:29.034Z,11.80
2022-11-16T00:55:56.017Z,11.80
2022-11-16T00:58:23.364Z,11.90
2022-11-16T01:00:50.060Z,11.90
2022-11-16T01:03:18.016Z,11.90
2022-11-16T01:05:45.010Z,12.10
2022-11-16T01:08:11.773Z,12.10
2022-11-16T01:10:41.422Z,12.00
2022-11-16T01:13:08.263Z,12.00
2022-11-16T01:15:35.289Z,12.00
2022-11-16T01:18:02.315Z,12.00
2022-11-16T01:20:29.895Z,11.90
2022-11-16T01:22:57.340Z,11.80
2022-11-16T01:25:24.452Z,11.90
2022-11-16T01:27:51.478Z,11.90
2022-11-16T01:30:18.231Z,11.90
2022-11-16T01:32:45.020Z,12.00
2022-11-16T01:35:17.083Z,11.90
2022-11-16T01:37:45.065Z,11.90
2022-11-16T01:40:14.040Z,11.80
2022-11-16T01:42:41.364Z,11.80
2022-11-16T01:45:33.802Z,11.80
2022-11-16T01:48:00.739Z,11.80
2022-11-16T01:50:27.821Z,11.70
2022-11-16T01:52:59.744Z,11.60
2022-11-16T01:55:28.587Z,11.60
2022-11-16T01:57:56.382Z,11.50
2022-11-16T02:00:23.499Z,11.50
2022-11-16T02:02:51.079Z,11.40
2022-11-16T02:05:25.908Z,11.30
2022-11-16T02:08:38.791Z,11.30
2022-11-16T02:11:11.728Z,11.30
2022-11-16T02:14:10.864Z,11.30
2022-11-16T02:17:10.020Z,11.20
2022-11-16T02:20:01.609Z,11.20
2022-11-16T02:22:49.944Z,11.20
2022-11-16T02:25:54.240Z,11.10
2022-11-16T02:29:00.304Z,11.30
2022-11-16T02:31:36.934Z,11.20
2022-11-16T02:34:07.877Z,11.20
2022-11-16T02:36:36.953Z,11.30
2022-11-16T02:39:11.509Z,11.30
2022-11-16T02:41:42.512Z,11.20
2022-11-16T02:44:15.033Z,11.20
2022-11-16T02:46:46.763Z,11.20
2022-11-16T02:49:19.536Z,11.10
2022-11-16T02:51:47.715Z,11.10
2022-11-16T02:54:20.748Z,11.00
2022-11-16T02:57:03.138Z,11.00
2022-11-16T02:59:39.696Z,10.90
2022-11-16T03:02:32.726Z,10.80
2022-11-16T03:05:07.862Z,10.70
2022-11-16T03:07:52.298Z,10.70
2022-11-16T03:10:40.276Z,10.60
2022-11-16T03:13:12.009Z,10.50
2022-11-16T03:15:41.233Z,10.40
2022-11-16T03:18:08.978Z,10.50
2022-11-16T03:20:38.217Z,10.40
2022-11-16T03:23:10.112Z,10.40
2022-11-16T03:25:51.102Z,10.50
2022-11-16T03:28:25.239Z,10.40
2022-11-16T03:31:04.189Z,10.40
2022-11-16T03:33:36.952Z,10.50
2022-11-16T03:36:23.336Z,10.40
2022-11-16T03:38:52.756Z,10.30
2022-11-16T03:41:23.393Z,10.40
2022-11-16T03:43:51.353Z,10.30
2022-11-16T03:46:19.675Z,10.30
2022-11-16T03:48:46.400Z,10.20
2022-11-16T03:51:13.878Z,10.30
2022-11-16T03:53:40.959Z,10.20
2022-11-16T03:56:08.104Z,10.10
2022-11-16T03:58:35.943Z,10.10
2022-11-16T04:01:03.654Z,10.10
2022-11-16T04:03:30.792Z,10.10
2022-11-16T04:06:16.416Z,10.00
2022-11-16T04:09:01.957Z,9.90
2022-11-16T04:11:47.375Z,9.80
2022-11-16T04:14:38.052Z,9.80
2022-11-16T04:17:29.108Z,9.90
2022-11-16T04:20:14.568Z,9.80
2022-11-16T04:23:21.424Z,9.70
2022-11-16T04:25:49.604Z,9.70
2022-11-16T04:28:19.838Z,9.70
2022-11-16T04:31:10.946Z,9.60
2022-11-16T04:33:57.183Z,9.50
2022-11-16T04:36:43.179Z,9.60
2022-11-16T04:39:10.191Z,9.50
2022-11-16T04:41:55.728Z,9.50
2022-11-16T04:44:28.772Z,9.60
2022-11-16T04:47:08.504Z,9.60
2022-11-16T04:49:35.329Z,9.60
2022-11-16T04:52:02.225Z,9.40
2022-11-16T04:54:29.271Z,9.40
2022-11-16T04:56:56.306Z,9.40
2022-11-16T04:59:23.359Z,9.40
2022-11-16T05:02:08.836Z,9.40
2022-11-16T05:04:41.739Z,9.40
2022-11-16T05:07:11.849Z,9.20
2022-11-16T05:09:46.792Z,9.20
2022-11-16T05:12:22.352Z,9.20
2022-11-16T05:14:50.593Z,9.20
2022-11-16T05:17:18.849Z,9.20
2022-11-16T05:20:04.396Z,9.20
2022-11-16T05:22:31.377Z,9.10
2022-11-16T05:24:58.337Z,9.00
2022-11-16T05:27:27.329Z,9.00
2022-11-16T05:29:54.993Z,9.10
2022-11-16T05:32:23.991Z,9.00
2022-11-16T05:34:51.393Z,9.00
2022-11-16T05:37:19.162Z,9.00
2022-11-16T05:39:46.345Z,9.00
2022-11-16T05:42:13.797Z,9.00
2022-11-16T05:44:40.671Z,9.00
2022-11-16T05:47:07.734Z,8.90
2022-11-16T05:49:34.798Z,9.00
2022-11-16T05:52:02.641Z,8.90
2022-11-16T05:54:31.178Z,8.90
2022-11-16T05:56:58.045Z,9.00
2022-11-16T05:59:25.051Z,8.90
2022-11-16T06:01:52.098Z,9.00
2022-11-16T06:04:24.453Z,8.90
2022-11-16T06:06:52.228Z,8.90
2022-11-16T06:09:19.844Z,8.90
2022-11-16T06:11:46.899Z,9.00
2022-11-16T06:14:13.955Z,9.00
2022-11-16T06:16:40.933Z,8.90
2022-11-16T06:19:08.764Z,9.00
2022-11-16T06:21:35.882Z,8.90
2022-11-16T06:24:08.760Z,8.90
2022-11-16T06:26:38.507Z,8.90
2022-11-16T06:29:05.184Z,8.90
2022-11-16T06:31:33.232Z,8.90
2022-11-16T06:34:00.081Z,8.90
2022-11-16T06:36:27.196Z,8.90
2022-11-16T06:38:54.258Z,8.90
2022-11-16T06:41:21.522Z,8.90
2022-11-16T06:43:48.271Z,8.80
2022-11-16T06:46:18.251Z,8.80
2022-11-16T06:48:46.059Z,8.80
2022-11-16T06:51:13.090Z,8.70
2022-11-16T06:53:39.748Z,8.80
2022-11-16T06:56:07.364Z,8.80
2022-11-16T06:58:34.624Z,8.80
2022-11-16T07:01:09.036Z,8.70
2022-11-16T07:03:35.952Z,8.70
2022-11-16T07:06:08.213Z,8.70
2022-11-16T07:08:35.756Z,8.70
2022-11-16T07:11:04.972Z,8.70
2022-11-16T07:13:33.229Z,8.70
2022-11-16T07:16:05.601Z,8.60
2022-11-16T07:18:35.088Z,8.70
2022-11-16T07:21:05.736Z,8.70
2022-11-16T07:23:32.903Z,8.70
2022-11-16T07:26:05.157Z,8.60
2022-11-16T07:28:33.054Z,8.60
2022-11-16T07:31:04.606Z,8.50
2022-11-16T07:33:32.304Z,8.60
2022-11-16T07:36:04.496Z,8.70
2022-11-16T07:38:32.541Z,8.70
2022-11-16T07:41:01.359Z,8.70
2022-11-16T07:43:35.038Z,8.80
2022-11-16T07:48:58.182Z,8.80
2022-11-16T07:51:25.271Z,8.80
2022-11-16T07:53:56.415Z,8.80
2022-11-16T07:56:24.862Z,8.80
2022-11-16T07:58:51.673Z,8.80
2022-11-16T08:01:18.974Z,8.90
2022-11-16T08:03:46.294Z,8.90
2022-11-16T08:06:15.049Z,9.00
2022-11-16T08:08:42.320Z,9.00
2022-11-16T08:11:10.823Z,9.00
2022-11-16T08:13:39.656Z,9.00
2022-11-16T08:16:11.039Z,9.20
2022-11-16T08:18:38.543Z,9.20
2022-11-16T08:21:07.190Z,9.20
2022-11-16T08:23:34.516Z,9.20
2022-11-16T08:26:04.410Z,9.30
2022-11-16T08:28:31.786Z,9.40
2022-11-16T08:30:59.543Z,9.40
2022-11-16T08:33:29.532Z,9.40
2022-11-16T08:35:57.127Z,9.40
2022-11-16T08:38:24.108Z,9.40
2022-11-16T08:40:51.256Z,9.50
2022-11-16T08:43:18.686Z,9.60
2022-11-16T08:45:49.443Z,9.60
2022-11-16T08:48:16.389Z,9.80
2022-11-16T08:51:15.414Z,9.90
2022-11-16T08:53:30.220Z,10.00
2022-11-16T08:56:03.351Z,10.20
2022-11-16T08:58:30.542Z,10.20
2022-11-16T09:00:57.945Z,10.30
2022-11-16T09:03:24.886Z,10.40
2022-11-16T09:05:52.741Z,10.40
2022-11-16T09:08:20.705Z,10.50
2022-11-16T09:10:47.700Z,10.50
2022-11-16T09:13:14.703Z,10.60
2022-11-16T09:15:41.374Z,10.60
2022-11-16T09:18:08.422Z,10.70
2022-11-16T09:20:35.529Z,10.70
2022-11-16T09:23:02.536Z,10.80
2022-11-16T09:25:29.616Z,10.70
2022-11-16T09:27:56.691Z,10.60
2022-11-16T09:30:23.381Z,10.70
2022-11-16T09:32:50.330Z,10.80
2022-11-16T09:35:17.369Z,10.90
2022-11-16T09:37:44.475Z,11.10
2022-11-16T09:40:12.477Z,11.20
2022-11-16T09:42:48.343Z,11.20
2022-11-16T09:45:20.364Z,11.20
2022-11-16T09:47:51.689Z,11.10
2022-11-16T09:50:49.730Z,11.10
2022-11-16T09:53:34.177Z,11.10
2022-11-16T09:56:08.467Z,11.30
2022-11-16T09:58:55.811Z,11.70
2022-11-16T10:01:28.298Z,12.20
2022-11-16T10:04:03.860Z,12.40
2022-11-16T10:06:51.158Z,12.50
2022-11-16T10:09:18.458Z,12.60
2022-11-16T10:11:59.124Z,12.50
2022-11-16T10:14:45.083Z,12.70
2022-11-16T10:17:18.010Z,13.00
2022-11-16T10:19:51.681Z,12.90
2022-11-16T10:22:34.881Z,13.40
2022-11-16T10:25:14.279Z,14.60
2022-11-16T10:28:17.694Z,15.30
2022-11-16T10:31:11.613Z,15.90
2022-11-16T10:33:41.554Z,15.80
2022-11-16T10:36:14.388Z,16.10
2022-11-16T10:38:42.924Z,17.20
2022-11-16T10:41:20.380Z,17.90
2022-11-16T10:43:48.279Z,17.20
2022-11-16T10:46:35.619Z,15.70
2022-11-16T10:49:12.949Z,14.80
2022-11-16T10:51:40.015Z,14.00
2022-11-16T10:54:17.643Z,13.80
2022-11-16T10:56:59.987Z,13.50
2022-11-16T10:59:41.775Z,13.50
2022-11-16T11:02:29.097Z,13.90
2022-11-16T11:05:20.320Z,14.50
2022-11-16T11:07:59.845Z,15.30
2022-11-16T11:10:33.931Z,16.00
2022-11-16T11:13:11.649Z,16.90
2022-11-16T11:15:41.008Z,16.80
2022-11-16T11:18:17.092Z,17.20
2022-11-16T11:20:47.940Z,17.10
2022-11-16T11:23:27.732Z,16.60
2022-11-16T11:25:55.735Z,15.90
2022-11-16T11:28:28.714Z,14.70
2022-11-16T11:31:17.029Z,14.10
2022-11-16T11:33:53.197Z,14.30
2022-11-16T11:36:25.171Z,14.10
2022-11-16T11:39:13.130Z,13.80
2022-11-16T11:41:43.110Z,13.50
2022-11-16T11:44:18.485Z,13.10
2022-11-16T11:50:10.903Z,12.90
2022-11-16T11:52:58.434Z,12.80
2022-11-16T11:55:25.424Z,12.80
2022-11-16T11:57:54.165Z,12.80
2022-11-16T12:00:22.554Z,12.80
2022-11-16T12:03:03.519Z,12.90
2022-11-16T12:05:42.590Z,13.00
2022-11-16T12:08:25.384Z,12.90
2022-11-16T12:11:00.560Z,13.00
2022-11-16T12:13:47.887Z,13.00
2022-11-16T12:16:33.564Z,12.80
2022-11-16T12:19:43.609Z,12.90
2022-11-16T12:22:25.872Z,12.90
2022-11-16T12:25:07.322Z,13.00
2022-11-16T12:27:53.556Z,13.10
2022-11-16T12:30:23.337Z,13.20
2022-11-16T12:33:08.743Z,13.40
2022-11-16T12:35:57.960Z,13.60
2022-11-16T12:38:43.374Z,13.30
2022-11-16T12:41:31.421Z,13.20
2022-11-16T12:44:05.324Z,13.20
2022-11-16T12:46:46.850Z,13.20
2022-11-16T12:49:19.511Z,13.10
2022-11-16T12:51:52.513Z,13.10
2022-11-16T12:54:34.856Z,13.20
2022-11-16T12:57:26.611Z,13.20
2022-11-16T13:00:08.308Z,13.30
2022-11-16T13:02:58.852Z,13.30
2022-11-16T13:05:43.081Z,13.30
2022-11-16T13:08:35.109Z,13.20
2022-11-16T13:11:27.239Z,13.00
2022-11-16T13:14:02.620Z,13.20
2022-11-16T13:16:29.530Z,13.10
2022-11-16T13:18:57.923Z,13.00
2022-11-16T13:22:03.716Z,13.20
2022-11-16T13:24:49.423Z,13.30
2022-11-16T13:27:40.336Z,13.30
2022-11-16T13:30:26.100Z,13.20
2022-11-16T13:33:29.969Z,13.20
2022-11-16T13:35:56.880Z,13.10
2022-11-16T13:38:51.217Z,13.10
2022-11-16T13:41:55.736Z,13.40
2022-11-16T13:44:26.417Z,14.50
2022-11-16T13:47:05.784Z,15.30
2022-11-16T13:49:48.160Z,15.70
2022-11-16T13:52:23.558Z,16.20
2022-11-16T13:54:54.527Z,15.90
2022-11-16T13:57:32.505Z,16.30
2022-11-16T14:00:04.922Z,15.90
2022-11-16T14:02:40.073Z,15.30
2022-11-16T14:05:12.692Z,14.80
2022-11-16T14:07:42.946Z,14.20
2022-11-16T14:10:11.964Z,13.70
2022-11-16T14:12:38.792Z,13.50
2022-11-16T14:15:23.516Z,13.30
2022-11-16T14:18:22.714Z,13.00
2022-11-16T14:20:55.022Z,13.00
2022-11-16T14:23:55.422Z,12.80
2022-11-16T14:27:04.586Z,12.90
2022-11-16T14:29:49.815Z,12.80
2022-11-16T14:32:41.245Z,12.90
2022-11-16T14:35:22.909Z,13.00
2022-11-16T14:37:58.824Z,13.00
2022-11-16T14:40:25.768Z,12.90
2022-11-16T14:43:16.487Z,13.20
2022-11-16T14:45:54.882Z,13.00
2022-11-16T14:48:25.801Z,12.80
2022-11-16T14:51:16.527Z,12.80
2022-11-16T14:54:10.119Z,12.70
2022-11-16T14:56:37.515Z,12.50
2022-11-16T14:59:05.359Z,12.40
2022-11-16T15:01:39.639Z,12.30
2022-11-16T15:04:12.014Z,12.30
2022-11-16T15:06:56.100Z,12.40
2022-11-16T15:09:28.939Z,12.30
2022-11-16T15:12:15.617Z,12.20
2022-11-16T15:14:50.007Z,12.00
2022-11-16T15:17:23.223Z,12.10
2022-11-16T15:19:59.990Z,12.00
2022-11-16T15:22:29.573Z,12.00
2022-11-16T15:25:01.140Z,11.90
2022-11-16T15:27:40.879Z,11.80
2022-11-16T15:30:19.537Z,11.80
2022-11-16T15:32:51.548Z,11.80
2022-11-16T15:35:24.562Z,11.60
2022-11-16T15:38:06.018Z,11.50
2022-11-16T15:40:34.294Z,11.40
2022-11-16T15:43:04.720Z,11.50
2022-11-16T15:45:32.655Z,11.40
2022-11-16T15:48:01.786Z,11.40
2022-11-16T15:50:29.108Z,11.50
2022-11-16T15:52:57.051Z,11.60
2022-11-16T15:55:49.377Z,11.40
2022-11-16T15:58:27.788Z,11.40
2022-11-16T16:00:55.235Z,11.30
2022-11-16T16:03:27.792Z,11.40
2022-11-16T16:05:55.630Z,11.40
2022-11-16T16:08:32.816Z,11.40
2022-11-16T16:11:02.932Z,11.30
2022-11-16T16:13:36.711Z,11.30
2022-11-16T16:16:28.117Z,11.40
2022-11-16T16:18:58.807Z,11.30
2022-11-16T16:21:27.580Z,11.40
2022-11-16T16:23:56.125Z,11.30
2022-11-16T16:26:23.513Z,11.30
2022-11-16T16:28:50.845Z,11.30
2022-11-16T16:31:18.978Z,11.20
2022-11-16T16:33:45.711Z,11.20
2022-11-16T16:36:13.667Z,11.20
2022-11-16T16:38:40.681Z,11.20
2022-11-16T16:41:07.747Z,11.20
2022-11-16T16:43:35.078Z,11.30
2022-11-16T16:46:03.522Z,11.20
2022-11-16T16:48:30.406Z,11.20
2022-11-16T16:50:57.580Z,11.30
2022-11-16T16:53:24.529Z,11.20
2022-11-16T16:55:52.052Z,11.30
2022-11-16T16:58:18.761Z,11.20
2022-11-16T17:00:45.682Z,11.20
2022-11-16T17:03:12.836Z,11.20
2022-11-16T17:05:39.834Z,11.20
2022-11-16T17:08:06.801Z,11.20
2022-11-16T17:10:34.027Z,11.20
2022-11-16T17:13:03.018Z,11.20
2022-11-16T17:15:29.990Z,11.30
2022-11-16T17:17:58.900Z,11.30
2022-11-16T17:20:25.799Z,11.30
2022-11-16T17:22:52.804Z,11.20
2022-11-16T17:25:20.762Z,11.30
2022-11-16T17:27:47.917Z,11.30
2022-11-16T17:30:15.087Z,11.30
2022-11-16T17:32:41.771Z,11.20
2022-11-16T17:35:09.343Z,11.20
2022-11-16T17:37:36.316Z,11.20
2022-11-16T17:40:03.608Z,11.10
2022-11-16T17:42:33.146Z,11.10
2022-11-16T17:44:59.876Z,11.20
2022-11-16T17:47:26.919Z,11.20
2022-11-16T17:49:54.091Z,11.30
2022-11-16T17:52:21.081Z,11.20
2022-11-16T17:54:48.115Z,11.30
2022-11-16T17:57:15.113Z,11.30
2022-11-16T17:59:41.889Z,11.40
2022-11-16T18:02:11.872Z,11.30
2022-11-16T18:04:38.737Z,11.40
2022-11-16T18:07:05.835Z,11.30
2022-11-16T18:09:32.836Z,11.40
2022-11-16T18:11:59.848Z,11.40
2022-11-16T18:14:27.466Z,11.40
2022-11-16T18:16:54.373Z,11.50
2022-11-16T18:19:21.464Z,11.40
2022-11-16T18:21:48.854Z,11.40
2022-11-16T18:24:15.708Z,11.40
2022-11-16T18:26:42.795Z,11.40
2022-11-16T18:29:12.682Z,11.50
2022-11-16T18:31:39.670Z,11.50
2022-11-16T18:34:06.636Z,11.60
2022-11-16T18:36:33.694Z,11.50
2022-11-16T18:39:00.643Z,11.50
2022-11-16T18:41:29.575Z,11.40
2022-11-16T18:43:58.601Z,11.40
2022-11-16T18:46:27.876Z,11.40
2022-11-16T18:48:55.612Z,11.30
2022-11-16T18:51:23.792Z,11.20
2022-11-16T18:53:50.926Z,11.20
2022-11-16T18:56:18.343Z,11.30
2022-11-16T18:58:53.455Z,11.20
2022-11-16T19:01:23.241Z,11.20
2022-11-16T19:03:50.800Z,11.20
2022-11-16T19:06:18.669Z,11.20
2022-11-16T19:08:51.747Z,11.10
2022-11-16T19:11:23.294Z,11.00
2022-11-16T19:13:54.648Z,11.00
2022-11-16T19:16:22.772Z,10.90
2022-11-16T19:18:49.605Z,10.80
2022-11-16T19:21:20.249Z,10.70
2022-11-16T19:23:49.520Z,10.70
2022-11-16T19:26:18.189Z,10.80
2022-11-16T19:28:47.127Z,10.80
2022-11-16T19:31:15.197Z,10.80
2022-11-16T19:33:42.299Z,10.80
2022-11-16T19:36:17.256Z,10.80
2022-11-16T19:38:45.503Z,10.80
2022-11-16T19:41:14.339Z,10.70
2022-11-16T19:43:41.827Z,10.70
2022-11-16T19:46:11.452Z,10.60
2022-11-16T19:48:38.807Z,10.70
2022-11-16T19:51:06.966Z,10.70
2022-11-16T19:53:34.966Z,10.60
2022-11-16T19:56:02.592Z,10.50
2022-11-16T19:58:32.029Z,10.60
2022-11-16T20:01:19.533Z,10.60
2022-11-16T20:03:47.571Z,10.60
2022-11-16T20:06:18.137Z,10.50
2022-11-16T20:08:50.439Z,10.50
2022-11-16T20:11:22.632Z,10.50
2022-11-16T20:13:50.915Z,10.50
2022-11-16T20:16:19.488Z,10.50
2022-11-16T20:18:46.698Z,10.50
2022-11-16T20:21:28.724Z,10.50
2022-11-16T20:24:00.215Z,10.50
2022-11-16T20:26:31.804Z,10.50
2022-11-16T20:28:59.268Z,10.50
2022-11-16T20:31:31.081Z,10.50
2022-11-16T20:34:02.440Z,10.50
2022-11-16T20:36:30.844Z,10.40
2022-11-16T20:38:59.437Z,10.50
2022-11-16T20:41:28.353Z,10.40
2022-11-16T20:43:57.701Z,10.40
2022-11-16T20:46:27.027Z,10.50
2022-11-16T20:48:55.793Z,10.50
2022-11-16T20:51:22.786Z,10.50
2022-11-16T20:53:50.118Z,10.50
2022-11-16T20:56:19.169Z,10.50
2022-11-16T20:58:47.100Z,10.40
2022-11-16T21:01:19.057Z,10.50
2022-11-16T21:03:46.246Z,10.40
2022-11-16T21:06:14.948Z,10.50
2022-11-16T21:08:41.912Z,10.50
2022-11-16T21:11:14.447Z,10.50
2022-11-16T21:13:59.954Z,10.50
2022-11-16T21:16:27.185Z,10.50
2022-11-16T21:18:55.536Z,10.50
2022-11-16T21:21:22.632Z,10.50
2022-11-16T21:23:52.317Z,10.60
2022-11-16T21:26:25.245Z,10.50
2022-11-16T21:28:53.428Z,10.50
2022-11-16T21:31:22.875Z,10.50
2022-11-16T21:33:49.860Z,10.60
2022-11-16T21:36:19.106Z,10.60
2022-11-16T21:38:46.665Z,10.70
2022-11-16T21:41:15.070Z,10.70
2022-11-16T21:43:42.497Z,10.80
2022-11-16T21:46:16.235Z,10.80
2022-11-16T21:48:43.921Z,10.80
2022-11-16T21:51:13.214Z,10.80
2022-11-16T21:53:40.196Z,10.80
2022-11-16T21:56:10.369Z,10.90
2022-11-16T21:58:38.839Z,10.90
2022-11-16T22:01:05.715Z,11.00
2022-11-16T22:03:32.991Z,10.90
2022-11-16T22:06:21.167Z,11.00
2022-11-16T22:08:48.716Z,11.00
2022-11-16T22:11:16.457Z,11.00
2022-11-16T22:13:43.735Z,11.00
2022-11-16T22:16:12.978Z,11.00
2022-11-16T22:18:39.951Z,11.10
2022-11-16T22:21:07.534Z,11.10
2022-11-16T22:23:34.974Z,11.10
2022-11-16T22:26:03.891Z,11.10
2022-11-16T22:28:31.695Z,11.10
2022-11-16T22:31:09.329Z,11.10
2022-11-16T22:33:37.077Z,11.10
2022-11-16T22:36:04.951Z,11.10
2022-11-16T22:38:31.919Z,11.10
2022-11-16T22:40:58.712Z,11.10
2022-11-16T22:43:27.791Z,11.10
2022-11-16T22:46:02.679Z,11.10
2022-11-16T22:48:34.951Z,11.20
2022-11-16T22:51:15.145Z,11.20
2022-11-16T22:53:41.776Z,11.20
2022-11-16T22:56:10.134Z,11.20
2022-11-16T22:58:38.825Z,11.20
2022-11-16T23:01:07.537Z,11.20
2022-11-16T23:03:35.534Z,11.30
2022-11-16T23:06:03.822Z,11.30
2022-11-16T23:08:30.698Z,11.30
2022-11-16T23:11:43.779Z,11.30
2022-11-16T23:14:31.832Z,11.30
2022-11-16T23:16:58.935Z,11.30
2022-11-16T23:19:44.714Z,11.30
2022-11-16T23:22:37.083Z,11.30
2022-11-16T23:25:26.025Z,11.30
2022-11-16T23:28:16.471Z,11.40
2022-11-16T23:30:43.490Z,11.40
2022-11-16T23:33:11.566Z,11.40
2022-11-16T23:35:38.455Z,11.40
2022-11-16T23:38:07.415Z,11.40
2022-11-16T23:40:36.617Z,11.40
2022-11-16T23:43:22.692Z,11.40
2022-11-16T23:45:50.551Z,11.40
2022-11-16T23:48:18.459Z,11.40
2022-11-16T23:50:46.366Z,11.40
2022-11-16T23:53:13.439Z,11.40
2022-11-16T23:55:41.218Z,11.40
2022-11-16T23:58:13.574Z,11.50
